Valle de Oro, Texas
Current Conditions -  °F | °C
As of 3:55 PM on Friday 24 Oct 2014 (Local Time) from KDUX Reporting Station
NA  
Wind Chill: 87°   Ceiling: NA
Heat Index: 87°   Visibility: 10mi
Dew Point: 36°   Wind: 7mph
Humidity: 17%   Direction: 200°SSW
Pressure: 30.1"   Gusts: NA
Location:  35.5297°N, 102.256°W
Report Text: KDUX 242055Z AUTO 20006KT 10SM 30/02 A3010 RMK AO2 T03030023
Loading
Personal Weather Stations






























Interactive Weather Map
Tropical Storm Tracking
New forecast layout! Learn more

10-Day Weather Forecast

Advertisements
Track Severe Weather on mobile